KHTS

Tri-State / Milton J Ferguson Field Airport

Huntington, West Virginia, USA
KHTS 210520Z 2106/2206 06004KT P6SM SKC
Issued Valid From Valid To
Apr-21 @ 05:20 UTC
(4 hours ago)
Apr-21 @ 06:00 UTC
(4 hours ago)
Apr-22 @ 06:00 UTC
(in 20 hours)
Apr-21 @ 06:00 to Apr-22 @ 06:00
KHTS 210520Z 2106/2206 06004KT P6SM SKC
Wind Visibility Clouds
60° at 4 knots Greater than 6 miles
  • Clear skies
KHTS 210520Z 2106/2206 06004KT P6SM SKC
Issued Apr-21 @ 05:20 UTC
(4 hours ago)
Valid From Apr-21 @ 06:00 UTC
(4 hours ago)
Valid To Apr-22 @ 06:00 UTC
(in 20 hours)
Apr-21 @ 06:00 - Apr-22 @ 06:00
Wind Visibility
60° at 4 knots Greater than 6 miles
Clouds
  • Clear skies